Time;durP1;ratioP1;P1;durP2;ratioP2;P2;SDS_P1;SDS_P2;PMS_P1;PMS_P2;Temp;Humidity;BMP_temperature;BMP_pressure;BME280_temperature;BME280_humidity;BME280_pressure;Samples;Min_cycle;Max_cycle;Signal;HPM_P1;HPM_P2
2022/11/09 00:01:28;;;;;;;1.63;0.30;;;13.10;99.90;;;;;;4984201;28;20054;-86
2022/11/09 00:03:56;;;;;;;2.53;0.30;;;13.10;99.90;;;;;;4963815;28;20034;-84
2022/11/09 00:06:22;;;;;;;1.35;0.30;;;13.10;99.90;;;;;;4960603;28;20055;-87
2022/11/09 00:08:48;;;;;;;0.77;0.20;;;13.10;99.90;;;;;;4959575;28;20093;-85
2022/11/09 00:11:14;;;;;;;1.33;0.30;;;13.10;99.90;;;;;;4983019;28;20031;-95
2022/11/09 00:13:42;;;;;;;0.80;0.20;;;13.10;99.90;;;;;;4987428;28;20508;-94
2022/11/09 00:16:09;;;;;;;1.80;0.20;;;13.20;99.90;;;;;;4963621;28;20055;-80
2022/11/09 00:18:36;;;;;;;1.17;0.30;;;13.20;99.90;;;;;;4982121;28;20029;-82
2022/11/09 00:21:11;;;;;;;2.53;0.25;;;13.20;99.90;;;;;;4958650;28;20069;-91
2022/11/09 00:23:36;;;;;;;2.00;0.45;;;13.20;99.90;;;;;;5001889;28;22073;-81
2022/11/09 00:26:07;;;;;;;1.58;0.20;;;13.20;99.90;;;;;;5017060;28;20026;-80
2022/11/09 00:28:33;;;;;;;1.25;0.20;;;13.10;99.90;;;;;;5005805;28;20056;-83
2022/11/09 00:31:00;;;;;;;2.50;0.30;;;13.10;99.90;;;;;;5000378;28;20041;-82
2022/11/09 00:33:26;;;;;;;2.20;0.30;;;13.10;99.90;;;;;;5003492;28;20524;-81
2022/11/09 00:35:52;;;;;;;2.75;0.20;;;13.10;99.90;;;;;;5021481;28;20014;-84
2022/11/09 00:38:17;;;;;;;1.80;0.30;;;13.10;99.90;;;;;;5017270;28;20037;-94
2022/11/09 00:40:43;;;;;;;1.95;0.20;;;13.10;99.90;;;;;;4995431;28;20390;-90
2022/11/09 00:43:09;;;;;;;0.77;0.25;;;13.20;99.90;;;;;;5002682;28;20509;-84
2022/11/09 00:45:35;;;;;;;2.60;0.30;;;13.20;99.90;;;;;;4992712;28;20507;-83
2022/11/09 00:48:00;;;;;;;1.17;0.30;;;13.20;99.90;;;;;;4990261;28;20036;-90
2022/11/09 00:50:26;;;;;;;1.90;0.22;;;13.20;99.90;;;;;;4978004;28;20125;-81
2022/11/09 00:52:52;;;;;;;1.85;0.30;;;13.20;99.90;;;;;;5006777;28;20474;-88
2022/11/09 00:55:19;;;;;;;1.63;0.30;;;13.20;99.90;;;;;;5006098;28;20081;-80
2022/11/09 00:57:49;;;;;;;1.63;0.20;;;13.20;99.90;;;;;;5007323;28;20018;-87
2022/11/09 01:00:20;;;;;;;2.40;0.30;;;13.30;99.90;;;;;;4979916;28;20044;-87
2022/11/09 01:02:48;;;;;;;1.00;0.28;;;13.20;99.90;;;;;;5005171;28;20034;-94
2022/11/09 01:05:14;;;;;;;1.45;0.30;;;13.30;99.90;;;;;;5025279;28;20029;-90
2022/11/09 01:07:39;;;;;;;1.02;0.20;;;13.20;99.90;;;;;;5024327;28;20493;-85
2022/11/09 01:10:06;;;;;;;1.48;0.20;;;13.20;99.90;;;;;;5024416;23;20055;-90
2022/11/09 01:12:32;;;;;;;0.98;0.17;;;13.20;99.90;;;;;;5031658;28;20033;-82
2022/11/09 01:14:58;;;;;;;0.90;0.20;;;13.20;99.90;;;;;;5025913;28;20037;-82
2022/11/09 01:17:24;;;;;;;0.95;0.10;;;13.20;99.90;;;;;;5035864;28;20065;-83
2022/11/09 01:19:51;;;;;;;0.43;0.10;;;13.20;99.90;;;;;;5021775;28;20397;-81
2022/11/09 01:22:18;;;;;;;2.08;0.30;;;13.20;99.90;;;;;;5011986;28;20033;-82
2022/11/09 01:24:44;;;;;;;1.58;0.20;;;13.20;99.90;;;;;;5043530;28;20025;-92
2022/11/09 01:27:10;;;;;;;1.40;0.20;;;13.20;99.90;;;;;;5025530;28;20077;-83
2022/11/09 01:29:36;;;;;;;1.88;0.20;;;13.20;99.90;;;;;;5036177;23;20106;-83
2022/11/09 01:32:02;;;;;;;1.70;0.20;;;13.30;99.90;;;;;;5039635;28;20089;-81
2022/11/09 01:34:30;;;;;;;1.50;0.20;;;13.30;99.90;;;;;;5030321;28;20020;-88
2022/11/09 01:36:56;;;;;;;0.80;0.10;;;13.20;99.90;;;;;;5033597;28;20442;-90
2022/11/09 01:39:21;;;;;;;0.88;0.20;;;13.30;99.90;;;;;;5027368;28;20079;-94
2022/11/09 01:41:47;;;;;;;0.50;0.20;;;13.20;99.90;;;;;;5013120;28;20469;-95
2022/11/09 01:44:18;;;;;;;1.10;0.30;;;13.20;99.90;;;;;;5014335;28;20033;-81
2022/11/09 01:46:57;;;;;;;0.88;0.20;;;13.10;99.90;;;;;;5038378;28;20051;-93
2022/11/09 01:49:40;;;;;;;0.45;0.17;;;13.10;99.90;;;;;;5024719;28;20033;-82
2022/11/09 01:52:14;;;;;;;0.95;0.20;;;13.10;99.90;;;;;;5013112;28;20025;-96
2022/11/09 01:54:44;;;;;;;1.15;0.28;;;13.10;99.90;;;;;;5031077;28;20123;-82
2022/11/09 01:57:16;;;;;;;0.80;0.20;;;13.00;99.90;;;;;;5030292;28;20040;-86
2022/11/09 01:59:47;;;;;;;1.08;0.20;;;13.00;99.90;;;;;;5011810;28;20037;-84
2022/11/09 02:02:13;;;;;;;1.45;0.20;;;12.90;99.90;;;;;;5037714;28;20032;-91
2022/11/09 02:04:50;;;;;;;0.70;0.20;;;12.90;99.90;;;;;;5019886;28;20026;-81
2022/11/09 02:07:17;;;;;;;2.35;0.20;;;12.80;99.90;;;;;;5028301;28;20073;-81
2022/11/09 02:09:54;;;;;;;1.33;0.20;;;12.90;99.90;;;;;;5048264;28;20024;-96
2022/11/09 02:12:21;;;;;;;1.27;0.20;;;12.90;99.90;;;;;;5029876;28;20478;-80
2022/11/09 02:14:49;;;;;;;1.55;0.55;;;13.00;99.90;;;;;;5011252;28;20047;-83
2022/11/09 02:17:16;;;;;;;1.52;0.35;;;13.00;99.90;;;;;;5010601;28;20060;-80
2022/11/09 02:19:43;;;;;;;1.08;0.30;;;13.00;99.90;;;;;;5010898;28;20037;-81
2022/11/09 02:22:08;;;;;;;0.80;0.20;;;13.10;99.90;;;;;;5034783;28;20029;-92
2022/11/09 02:24:34;;;;;;;1.98;0.30;;;13.10;99.90;;;;;;5017746;28;20033;-88
2022/11/09 02:27:05;;;;;;;2.55;0.30;;;13.10;99.90;;;;;;5028249;28;20103;-84
2022/11/09 02:29:40;;;;;;;2.15;0.30;;;13.10;99.90;;;;;;5041723;28;20125;-81
2022/11/09 02:32:12;;;;;;;2.65;0.35;;;13.00;99.90;;;;;;5030620;28;20028;-93
2022/11/09 02:34:38;;;;;;;1.25;0.20;;;13.00;99.90;;;;;;5052213;28;20036;-88
2022/11/09 02:37:04;;;;;;;0.95;0.20;;;12.90;99.90;;;;;;5031926;28;20024;-88
2022/11/09 02:39:30;;;;;;;3.38;0.30;;;12.80;99.90;;;;;;5018243;28;20025;-81
2022/11/09 02:42:08;;;;;;;2.15;0.30;;;12.70;99.90;;;;;;5027356;28;20032;-82
2022/11/09 02:44:39;;;;;;;1.60;0.20;;;12.70;99.90;;;;;;5018428;28;20079;-83
2022/11/09 02:47:06;;;;;;;1.48;0.30;;;12.70;99.90;;;;;;5034517;28;20024;-81
2022/11/09 02:49:32;;;;;;;2.08;0.30;;;12.70;99.90;;;;;;5037274;28;20026;-83
2022/11/09 02:51:58;;;;;;;1.65;0.40;;;12.70;99.90;;;;;;5014134;28;20362;-90
2022/11/09 02:54:24;;;;;;;4.38;0.30;;;12.80;99.90;;;;;;5040069;28;20420;-87
2022/11/09 02:56:51;;;;;;;0.85;0.20;;;12.80;99.90;;;;;;5038190;28;20017;-81
2022/11/09 02:59:16;;;;;;;1.10;0.22;;;12.70;99.90;;;;;;5047046;28;20044;-90
2022/11/09 03:01:42;;;;;;;2.05;0.20;;;12.70;99.90;;;;;;5031038;28;20108;-85
2022/11/09 03:04:09;;;;;;;1.63;0.20;;;12.80;99.90;;;;;;5034018;28;20033;-81
2022/11/09 03:06:35;;;;;;;1.67;0.20;;;12.80;99.90;;;;;;5036203;28;20025;-83
2022/11/09 03:09:06;;;;;;;;;;;12.80;99.90;;;;;;5022529;28;20089;-81
2022/11/09 03:11:32;;;;;;;2.45;0.30;;;12.70;99.90;;;;;;5048280;28;19909;-81
2022/11/09 03:13:58;;;;;;;1.50;0.20;;;12.80;99.90;;;;;;5038222;28;20033;-81
2022/11/09 03:16:24;;;;;;;1.90;0.30;;;12.80;99.90;;;;;;5025913;28;20021;-81
2022/11/09 03:18:51;;;;;;;3.75;0.20;;;12.70;99.90;;;;;;5048330;28;20087;-96
2022/11/09 03:21:18;;;;;;;1.52;0.20;;;12.70;99.90;;;;;;5037831;28;20057;-90
2022/11/09 03:23:44;;;;;;;1.05;0.20;;;12.70;99.90;;;;;;5042531;28;20131;-91
2022/11/09 03:26:10;;;;;;;1.92;0.30;;;12.70;99.90;;;;;;5047690;28;20017;-82
2022/11/09 03:28:36;;;;;;;2.35;0.30;;;12.70;99.90;;;;;;5026126;28;20025;-81
2022/11/09 03:31:02;;;;;;;1.88;0.20;;;12.80;99.90;;;;;;5049505;28;20029;-85
2022/11/09 03:33:29;;;;;;;1.00;0.15;;;12.70;99.90;;;;;;5037658;28;20251;-81
2022/11/09 03:35:55;;;;;;;0.75;0.10;;;12.70;99.90;;;;;;5020187;28;20065;-81
2022/11/09 03:38:21;;;;;;;1.88;0.35;;;12.70;99.90;;;;;;5039554;28;20036;-88
2022/11/09 03:40:48;;;;;;;0.60;0.10;;;12.70;99.90;;;;;;5030422;28;20117;-94
2022/11/09 03:43:14;;;;;;;2.30;0.20;;;12.70;99.90;;;;;;5036339;28;20444;-86
2022/11/09 03:45:40;;;;;;;3.25;0.30;;;12.70;99.90;;;;;;5020122;28;20060;-82
2022/11/09 03:48:06;;;;;;;1.27;0.10;;;12.70;99.90;;;;;;5054381;28;20428;-81
2022/11/09 03:50:33;;;;;;;1.70;0.20;;;12.70;99.90;;;;;;5041419;28;20028;-94
2022/11/09 03:53:00;;;;;;;4.68;0.30;;;12.70;99.90;;;;;;5039364;28;20033;-81
2022/11/09 03:55:26;;;;;;;1.45;0.25;;;12.80;99.90;;;;;;5041504;28;20595;-90
2022/11/09 03:57:52;;;;;;;1.67;0.20;;;12.70;99.90;;;;;;5041972;28;20063;-80
2022/11/09 04:00:20;;;;;;;1.35;0.20;;;12.70;99.90;;;;;;5037702;28;20033;-88
2022/11/09 04:02:48;;;;;;;1.10;0.20;;;12.70;99.90;;;;;;5040848;28;20025;-89
2022/11/09 04:05:14;;;;;;;1.27;0.10;;;12.70;99.90;;;;;;5047675;28;20040;-87
2022/11/09 04:07:45;;;;;;;0.93;0.10;;;12.70;99.90;;;;;;5039300;28;20021;-93
2022/11/09 04:10:11;;;;;;;2.45;0.17;;;12.70;99.90;;;;;;5040261;28;20052;-92
2022/11/09 04:12:36;;;;;;;2.80;0.32;;;12.70;99.90;;;;;;5019351;28;20497;-89
2022/11/09 04:15:02;;;;;;;2.35;0.20;;;12.70;99.90;;;;;;5036407;28;20481;-85
2022/11/09 04:17:28;;;;;;;2.58;0.20;;;12.80;99.90;;;;;;5029518;28;20028;-85
2022/11/09 04:19:53;;;;;;;5.03;0.40;;;12.90;99.90;;;;;;5028072;28;20033;-81
2022/11/09 04:22:19;;;;;;;1.75;0.20;;;12.80;99.90;;;;;;5037596;28;20037;-87
2022/11/09 04:24:44;;;;;;;1.70;0.20;;;12.80;99.90;;;;;;5036966;28;20033;-81
2022/11/09 04:27:10;;;;;;;2.47;0.25;;;12.80;99.90;;;;;;5031979;28;20115;-83
2022/11/09 04:29:36;;;;;;;1.77;0.20;;;12.60;99.90;;;;;;5049948;28;20043;-83
2022/11/09 04:32:02;;;;;;;3.58;0.30;;;12.60;99.90;;;;;;5020735;23;20522;-81
2022/11/09 04:34:27;;;;;;;2.40;0.20;;;12.70;99.90;;;;;;4977352;28;20033;-81
2022/11/09 04:36:53;;;;;;;3.55;0.32;;;12.60;99.90;;;;;;4997188;28;20499;-82
2022/11/09 04:39:19;;;;;;;3.47;0.30;;;12.60;99.90;;;;;;4973791;28;20480;-82
2022/11/09 04:41:44;;;;;;;3.20;0.20;;;12.60;99.90;;;;;;4955820;28;20019;-92
2022/11/09 04:44:10;;;;;;;1.50;0.20;;;12.60;99.90;;;;;;4961183;28;20065;-80
2022/11/09 04:46:35;;;;;;;6.95;0.52;;;12.50;99.90;;;;;;4991869;28;20081;-81
2022/11/09 04:49:01;;;;;;;5.60;0.30;;;12.50;99.90;;;;;;4974942;28;20030;-94
2022/11/09 04:51:27;;;;;;;4.53;0.30;;;12.50;99.90;;;;;;4994913;28;20062;-84
2022/11/09 04:53:52;;;;;;;1.58;0.20;;;12.40;99.90;;;;;;4979207;28;20023;-81
2022/11/09 04:56:18;;;;;;;3.15;0.20;;;12.40;99.90;;;;;;4958667;28;20516;-82
2022/11/09 04:58:44;;;;;;;1.42;0.20;;;12.30;99.90;;;;;;4961512;28;20031;-88
2022/11/09 05:01:11;;;;;;;1.10;0.10;;;12.30;99.90;;;;;;4993999;28;20054;-88
2022/11/09 05:03:39;;;;;;;2.20;0.13;;;12.20;99.90;;;;;;4970402;28;20395;-80
2022/11/09 05:08:50;;;;;;;1.33;0.20;;;12.10;99.90;;;;;;4994655;28;20090;-95
2022/11/09 05:11:16;;;;;;;2.03;0.20;;;12.10;99.90;;;;;;4972142;28;20603;-81
2022/11/09 05:13:41;;;;;;;2.45;0.20;;;12.20;99.90;;;;;;4978150;28;20264;-93
2022/11/09 05:16:07;;;;;;;1.98;0.35;;;12.10;99.90;;;;;;4961495;28;20105;-82
2022/11/09 05:18:33;;;;;;;1.65;0.20;;;12.10;99.90;;;;;;4979539;28;20049;-82
2022/11/09 05:21:00;;;;;;;2.65;0.20;;;12.10;99.90;;;;;;4960817;28;20022;-85
2022/11/09 05:26:10;;;;;;;2.72;0.30;;;12.00;99.90;;;;;;4992736;28;20129;-95
2022/11/09 05:28:35;;;;;;;2.08;0.43;;;12.00;99.90;;;;;;4990874;28;20534;-95
2022/11/09 05:31:01;;;;;;;2.22;0.20;;;12.00;99.90;;;;;;4975569;23;20061;-83
2022/11/09 05:33:27;;;;;;;3.25;0.30;;;12.00;99.90;;;;;;5012785;28;20030;-88
2022/11/09 05:35:54;;;;;;;4.75;0.30;;;11.90;99.90;;;;;;5013709;28;20029;-82
2022/11/09 05:38:20;;;;;;;3.67;0.50;;;11.90;99.90;;;;;;4992933;28;20133;-83
2022/11/09 05:40:47;;;;;;;3.55;0.30;;;11.90;99.90;;;;;;5011510;28;20046;-94
2022/11/09 05:43:13;;;;;;;2.80;0.17;;;11.80;99.90;;;;;;5011872;28;20029;-84
2022/11/09 05:48:30;;;;;;;1.58;0.20;;;11.80;99.90;;;;;;5033811;28;20041;-92
2022/11/09 05:50:59;;;;;;;3.25;0.30;;;11.80;99.90;;;;;;5026708;28;20029;-82
2022/11/09 05:53:26;;;;;;;3.10;0.22;;;11.80;99.90;;;;;;5003240;28;20005;-81
2022/11/09 05:55:51;;;;;;;2.03;0.22;;;11.80;99.90;;;;;;5034447;28;20083;-82
2022/11/09 05:58:17;;;;;;;3.15;0.25;;;11.90;99.90;;;;;;5027827;28;20044;-81
2022/11/09 06:00:43;;;;;;;3.55;0.20;;;11.90;99.90;;;;;;5001834;28;20105;-93
2022/11/09 06:03:10;;;;;;;2.10;0.32;;;11.80;99.90;;;;;;5023160;28;20037;-83
2022/11/09 06:05:37;;;;;;;4.30;0.20;;;11.80;99.90;;;;;;5016862;28;20033;-93
2022/11/09 06:08:09;;;;;;;3.67;0.30;;;11.80;99.90;;;;;;5025477;28;20079;-81
2022/11/09 06:10:35;;;;;;;2.03;0.30;;;11.70;99.90;;;;;;5008735;28;20033;-83
2022/11/09 06:13:01;;;;;;;2.30;0.22;;;11.70;99.90;;;;;;5017338;28;20041;-88
2022/11/09 06:15:27;;;;;;;1.60;0.20;;;11.70;99.90;;;;;;5024573;28;20098;-87
2022/11/09 06:17:56;;;;;;;4.43;0.30;;;11.70;99.90;;;;;;5020757;28;20085;-81
2022/11/09 06:20:26;;;;;;;2.63;0.20;;;11.60;99.90;;;;;;5014255;28;20421;-81
2022/11/09 06:23:00;;;;;;;3.17;0.20;;;11.60;99.90;;;;;;5006599;28;20044;-86
2022/11/09 06:25:26;;;;;;;2.00;0.30;;;11.60;99.90;;;;;;5041681;28;20053;-92
2022/11/09 06:27:55;;;;;;;3.10;0.28;;;11.60;99.90;;;;;;5019909;28;20056;-95
2022/11/09 06:30:21;;;;;;;3.45;0.45;;;11.60;99.90;;;;;;5031193;28;20085;-82
2022/11/09 06:32:46;;;;;;;1.45;0.20;;;11.60;99.90;;;;;;5008642;28;20045;-81
2022/11/09 06:35:13;;;;;;;1.80;0.20;;;11.70;99.90;;;;;;5040530;28;20071;-92
2022/11/09 06:37:38;;;;;;;3.28;0.20;;;11.70;99.90;;;;;;5008177;28;20137;-83
2022/11/09 06:40:05;;;;;;;2.53;0.30;;;11.70;99.90;;;;;;5026262;28;20473;-90
2022/11/09 06:42:31;;;;;;;1.73;0.30;;;11.60;99.90;;;;;;5019176;28;20033;-83
2022/11/09 06:44:56;;;;;;;2.30;0.28;;;11.70;99.90;;;;;;5030194;28;20021;-83
2022/11/09 06:47:22;;;;;;;3.45;0.52;;;11.60;99.90;;;;;;5003192;28;20054;-91
2022/11/09 06:49:48;;;;;;;1.92;0.30;;;11.50;99.90;;;;;;4975978;23;1081800;-85
2022/11/09 06:52:14;;;;;;;1.67;0.30;;;11.50;99.90;;;;;;4952955;29;20391;-81
2022/11/09 06:54:39;;;;;;;2.95;0.30;;;11.40;99.90;;;;;;4939000;29;20035;-81
2022/11/09 06:57:05;;;;;;;3.53;0.75;;;11.40;99.90;;;;;;4933198;29;20027;-82
2022/11/09 06:59:30;;;;;;;2.80;0.20;;;11.30;99.90;;;;;;4957190;29;20586;-80
2022/11/09 07:01:57;;;;;;;3.65;0.50;;;11.40;99.90;;;;;;4940623;29;20037;-80
2022/11/09 07:04:23;;;;;;;2.83;0.30;;;11.30;99.90;;;;;;4936766;29;20118;-88
2022/11/09 07:06:49;;;;;;;2.33;0.20;;;11.30;99.90;;;;;;4920069;29;20065;-80
2022/11/09 07:09:14;;;;;;;1.88;0.20;;;11.20;99.90;;;;;;4947489;29;20110;-80
2022/11/09 07:11:40;;;;;;;3.10;0.30;;;11.20;99.90;;;;;;4935343;29;20042;-90
2022/11/09 07:14:05;;;;;;;3.10;0.30;;;11.30;99.90;;;;;;4958285;29;20027;-81
2022/11/09 07:16:31;;;;;;;4.22;0.50;;;11.30;99.90;;;;;;4946140;29;20031;-83
2022/11/09 07:18:57;;;;;;;2.47;0.30;;;11.40;99.90;;;;;;4957714;29;20042;-83
2022/11/09 07:21:23;;;;;;;2.10;0.30;;;11.30;99.90;;;;;;4955002;28;20505;-81
2022/11/09 07:23:49;;;;;;;3.40;0.28;;;11.30;99.90;;;;;;4940021;29;20118;-81
2022/11/09 07:26:16;;;;;;;2.30;0.30;;;11.30;99.90;;;;;;4959454;29;20495;-80
2022/11/09 07:28:42;;;;;;;3.05;0.70;;;11.30;99.90;;;;;;4939538;29;20417;-81
2022/11/09 07:31:08;;;;;;;1.98;0.30;;;11.30;99.90;;;;;;4942083;29;20032;-81
2022/11/09 07:33:34;;;;;;;1.95;0.22;;;11.30;99.90;;;;;;4963617;29;20042;-93
2022/11/09 07:36:01;;;;;;;3.03;0.55;;;11.30;99.90;;;;;;4947645;29;20111;-84
2022/11/09 07:38:28;;;;;;;2.47;0.20;;;11.30;99.90;;;;;;4953810;29;20031;-92
2022/11/09 07:40:56;;;;;;;2.92;0.25;;;11.30;99.90;;;;;;4937985;29;20086;-81
2022/11/09 07:43:22;;;;;;;2.15;0.20;;;11.40;99.90;;;;;;4956849;29;20027;-81
2022/11/09 07:45:50;;;;;;;1.15;0.30;;;11.40;99.90;;;;;;4940423;29;20035;-88
2022/11/09 07:48:15;;;;;;;3.03;0.30;;;11.50;99.90;;;;;;4944246;29;20022;-85
2022/11/09 07:50:42;;;;;;;3.90;0.30;;;11.50;99.90;;;;;;4958953;29;20648;-91
2022/11/09 07:53:13;;;;;;;3.13;0.40;;;11.50;99.90;;;;;;4943491;29;20031;-82
2022/11/09 07:55:40;;;;;;;2.97;0.80;;;11.50;99.90;;;;;;4940323;29;20459;-80
2022/11/09 07:58:08;;;;;;;1.52;0.20;;;11.60;99.90;;;;;;4931739;29;20039;-81
2022/11/09 08:00:36;;;;;;;3.90;0.20;;;11.50;99.90;;;;;;4953434;29;20032;-80
2022/11/09 08:03:02;;;;;;;5.82;0.30;;;11.60;99.90;;;;;;4935604;29;20031;-84
2022/11/09 08:05:28;;;;;;;4.60;0.30;;;11.70;99.90;;;;;;4933942;29;20109;-83
2022/11/09 08:08:03;;;;;;;2.92;0.40;;;11.70;99.90;;;;;;4935612;29;20405;-83
2022/11/09 08:10:30;;;;;;;3.13;0.28;;;11.70;99.90;;;;;;4935641;29;20038;-81
2022/11/09 08:12:59;;;;;;;2.22;0.22;;;11.70;99.90;;;;;;4916040;29;20046;-87
2022/11/09 08:15:26;;;;;;;3.47;0.30;;;11.80;99.90;;;;;;4953268;29;20117;-82
2022/11/09 08:17:52;;;;;;;4.78;0.50;;;11.90;99.90;;;;;;4933272;29;20055;-81
2022/11/09 08:20:18;;;;;;;4.45;0.40;;;12.00;99.90;;;;;;4935531;29;20086;-90
2022/11/09 08:22:45;;;;;;;3.05;0.20;;;12.10;99.90;;;;;;4937015;29;20032;-90
2022/11/09 08:25:12;;;;;;;3.50;0.40;;;12.10;99.90;;;;;;4918162;29;20023;-81
2022/11/09 08:27:41;;;;;;;3.58;0.30;;;12.10;99.90;;;;;;4928928;29;20035;-86
2022/11/09 08:30:14;;;;;;;3.47;0.47;;;12.10;99.90;;;;;;4928653;29;20067;-87
2022/11/09 08:32:41;;;;;;;2.95;0.20;;;12.20;99.90;;;;;;4950499;28;20354;-81
2022/11/09 08:35:09;;;;;;;2.05;0.30;;;12.30;99.90;;;;;;4944160;29;20384;-81
2022/11/09 08:37:38;;;;;;;3.22;0.45;;;12.40;99.90;;;;;;4952462;29;20043;-90
2022/11/09 08:40:05;;;;;;;3.37;0.30;;;12.50;99.90;;;;;;4944270;29;20182;-81
2022/11/09 08:42:31;;;;;;;3.40;0.30;;;12.50;99.90;;;;;;4955513;29;20027;-84
2022/11/09 08:44:56;;;;;;;1.67;0.30;;;12.60;99.90;;;;;;4935523;29;20070;-81
2022/11/09 08:47:22;;;;;;;3.40;0.20;;;12.70;99.90;;;;;;4955987;29;20092;-86
2022/11/09 08:49:48;;;;;;;2.13;0.30;;;12.70;99.90;;;;;;4934466;29;20471;-80
2022/11/09 08:52:16;;;;;;;1.60;0.20;;;12.80;99.90;;;;;;4933590;29;20023;-85
2022/11/09 08:54:41;;;;;;;4.30;0.38;;;12.90;99.90;;;;;;4955065;29;20045;-94
2022/11/09 08:57:07;;;;;;;4.75;0.40;;;13.00;99.90;;;;;;4934955;29;20043;-90
2022/11/09 08:59:33;;;;;;;5.63;0.32;;;13.00;99.90;;;;;;4957006;29;20046;-81
2022/11/09 09:01:58;;;;;;;3.47;0.43;;;13.00;99.90;;;;;;4936205;29;20067;-81
2022/11/09 09:04:24;;;;;;;4.55;0.30;;;13.10;99.90;;;;;;4954600;29;20035;-83
2022/11/09 09:06:51;;;;;;;3.95;0.40;;;13.00;99.90;;;;;;4935914;29;20027;-83
2022/11/09 09:09:16;;;;;;;2.28;0.30;;;13.10;99.90;;;;;;4919784;29;20094;-96
2022/11/09 09:11:42;;;;;;;3.65;0.30;;;13.20;99.90;;;;;;4953987;29;20082;-81
2022/11/09 09:14:08;;;;;;;2.08;0.30;;;13.30;99.90;;;;;;4937219;29;20496;-81
2022/11/09 09:16:33;;;;;;;3.85;0.38;;;13.30;99.90;;;;;;4930302;29;20499;-82
2022/11/09 09:18:59;;;;;;;3.30;0.40;;;13.20;99.90;;;;;;4941389;29;20055;-83
2022/11/09 09:21:25;;;;;;;5.15;0.43;;;13.30;99.90;;;;;;4930583;29;20039;-80
2022/11/09 09:23:50;;;;;;;5.32;0.40;;;13.20;99.90;;;;;;4954657;29;20031;-83
2022/11/09 09:26:17;;;;;;;2.20;0.30;;;13.10;99.90;;;;;;4955050;29;20055;-85
2022/11/09 09:28:42;;;;;;;2.47;0.47;;;13.10;99.90;;;;;;4951467;29;20408;-82
2022/11/09 09:31:08;;;;;;;4.15;0.40;;;13.30;99.90;;;;;;4951769;29;20028;-80
2022/11/09 09:33:34;;;;;;;3.50;0.30;;;13.30;99.90;;;;;;4950339;29;20552;-80
2022/11/09 09:35:59;;;;;;;5.50;0.60;;;13.40;99.90;;;;;;4933794;29;20030;-81
2022/11/09 09:38:26;;;;;;;4.43;0.40;;;13.30;99.90;;;;;;4931093;29;20027;-81
2022/11/09 09:41:00;;;;;;;2.92;0.30;;;13.40;99.90;;;;;;4931621;29;20035;-81
2022/11/09 09:43:55;;;;;;;5.32;0.30;;;13.50;99.90;;;;;;4950842;28;20027;-81
2022/11/09 09:46:42;;;;;;;5.47;0.70;;;13.60;99.90;;;;;;4933218;29;20036;-90
2022/11/09 09:49:26;;;;;;;4.32;0.35;;;13.50;99.90;;;;;;4951586;29;20050;-86
2022/11/09 09:52:36;;;;;;;5.32;0.60;;;13.40;99.90;;;;;;4931752;29;20122;-81
2022/11/09 09:55:23;;;;;;;5.00;0.40;;;13.40;99.90;;;;;;4928493;29;20481;-93
2022/11/09 09:58:01;;;;;;;4.65;0.45;;;13.60;99.90;;;;;;4961888;28;20056;-82
2022/11/09 10:00:27;;;;;;;4.15;0.40;;;13.60;99.90;;;;;;4950541;28;20042;-86
2022/11/09 10:02:53;;;;;;;6.07;0.45;;;13.60;99.90;;;;;;4944730;28;20019;-89
2022/11/09 10:05:27;;;;;;;4.45;0.30;;;13.80;99.90;;;;;;4947585;29;20039;-80
2022/11/09 10:08:27;;;;;;;4.28;0.40;;;13.90;99.90;;;;;;4927702;29;20041;-85
2022/11/09 10:11:20;;;;;;;6.80;0.50;;;13.80;99.90;;;;;;4932572;29;20043;-82
2022/11/09 10:13:59;;;;;;;3.63;0.77;;;13.60;99.90;;;;;;4946606;29;20032;-84
2022/11/09 10:16:53;;;;;;;3.42;0.40;;;13.70;99.90;;;;;;4949122;29;20050;-87
2022/11/09 10:19:31;;;;;;;7.20;0.50;;;13.70;99.90;;;;;;4948578;29;20039;-81
2022/11/09 10:22:08;;;;;;;4.15;0.38;;;13.80;99.90;;;;;;4949452;29;20031;-82
2022/11/09 10:24:48;;;;;;;2.65;0.30;;;13.90;99.90;;;;;;4960724;28;20027;-80
2022/11/09 10:27:36;;;;;;;1.55;0.30;;;14.00;99.90;;;;;;4929900;29;20090;-87
2022/11/09 10:30:17;;;;;;;4.78;0.93;;;14.10;99.90;;;;;;4930378;29;20039;-91
2022/11/09 10:32:47;;;;;;;3.80;0.40;;;14.30;99.90;;;;;;4951308;28;20028;-81
2022/11/09 10:35:12;;;;;;;3.33;0.30;;;14.40;99.90;;;;;;4964122;28;20126;-81
2022/11/09 10:37:45;;;;;;;4.47;0.38;;;14.40;99.90;;;;;;4948001;29;20122;-92
2022/11/09 10:40:11;;;;;;;3.72;0.40;;;14.50;99.90;;;;;;4940467;29;20051;-84
2022/11/09 10:43:03;;;;;;;5.63;0.30;;;14.30;99.90;;;;;;4954531;29;20019;-81
2022/11/09 10:45:59;;;;;;;4.88;0.30;;;14.40;99.90;;;;;;4950785;29;20058;-84
2022/11/09 10:48:43;;;;;;;2.83;0.40;;;14.50;99.90;;;;;;4951084;29;20046;-81
2022/11/09 10:51:36;;;;;;;4.65;0.40;;;14.50;99.90;;;;;;4937225;29;20531;-87
2022/11/09 10:54:22;;;;;;;2.65;0.30;;;14.40;99.90;;;;;;4962928;28;20030;-81
2022/11/09 10:57:15;;;;;;;4.32;0.30;;;14.40;99.90;;;;;;4937841;29;20118;-80
2022/11/09 11:00:00;;;;;;;3.03;0.30;;;14.70;99.90;;;;;;4950880;29;20055;-81
2022/11/09 11:02:46;;;;;;;4.07;0.30;;;14.80;99.90;;;;;;4954064;29;20046;-83
2022/11/09 11:05:30;;;;;;;3.53;0.28;;;14.90;99.90;;;;;;4939709;29;20546;-82
2022/11/09 11:08:37;;;;;;;4.90;0.30;;;14.80;99.90;;;;;;4955400;29;20042;-81
2022/11/09 11:11:22;;;;;;;4.63;0.45;;;14.60;99.90;;;;;;4954174;29;20114;-81
2022/11/09 11:14:27;;;;;;;7.65;0.30;;;14.50;99.90;;;;;;4950081;29;20045;-82
2022/11/09 11:17:24;;;;;;;4.75;0.38;;;14.30;99.90;;;;;;4939171;29;20030;-94
2022/11/09 11:20:35;;;;;;;3.33;0.60;;;14.30;99.90;;;;;;4954128;29;20090;-82
2022/11/09 11:23:24;;;;;;;5.30;0.50;;;14.30;99.90;;;;;;4954576;29;20033;-92
2022/11/09 11:26:22;;;;;;;5.95;0.40;;;14.40;99.90;;;;;;4953411;29;20368;-88
2022/11/09 11:29:53;;;;;;;5.30;0.40;;;14.30;99.90;;;;;;4952691;29;20078;-81
2022/11/09 11:32:37;;;;;;;2.03;0.20;;;14.20;99.90;;;;;;4955886;29;20033;-81
2022/11/09 11:35:21;;;;;;;5.90;0.60;;;14.30;99.90;;;;;;4956345;29;20065;-92
2022/11/09 11:38:30;;;;;;;4.03;0.30;;;14.30;99.90;;;;;;4954416;29;20099;-93
2022/11/09 11:41:47;;;;;;;4.93;0.30;;;14.20;99.90;;;;;;4946640;29;20078;-82
2022/11/09 11:44:59;;;;;;;3.97;0.30;;;14.20;99.90;;;;;;4954191;29;20051;-84
2022/11/09 11:47:56;;;;;;;3.30;0.30;;;14.20;99.90;;;;;;4947097;29;20055;-88
2022/11/09 11:50:53;;;;;;;7.70;0.40;;;14.20;99.90;;;;;;4944255;29;20058;-81
2022/11/09 11:54:02;;;;;;;1.67;0.28;;;14.20;99.90;;;;;;4974722;23;20020;-80
2022/11/09 11:57:11;;;;;;;5.30;0.40;;;14.20;99.90;;;;;;5028974;28;20144;-82
2022/11/09 12:00:03;;;;;;;3.10;0.40;;;14.10;99.90;;;;;;5018087;28;20049;-80
2022/11/09 12:03:13;;;;;;;2.58;0.28;;;14.20;99.90;;;;;;5035540;28;20051;-87
2022/11/09 12:06:04;;;;;;;6.20;0.30;;;14.20;99.90;;;;;;5031802;28;20028;-83
2022/11/09 12:08:55;;;;;;;3.00;0.30;;;14.30;99.90;;;;;;5033382;28;20240;-81
2022/11/09 12:12:12;;;;;;;3.00;0.17;;;14.30;99.90;;;;;;5036257;28;20065;-95
2022/11/09 12:15:05;;;;;;;3.67;0.30;;;14.30;99.90;;;;;;5018063;28;20071;-87
2022/11/09 12:18:02;;;;;;;3.88;0.22;;;14.40;99.90;;;;;;5033640;28;20118;-93
2022/11/09 12:21:17;;;;;;;7.20;0.30;;;14.40;99.90;;;;;;5018829;28;20128;-87
2022/11/09 12:24:11;;;;;;;4.07;0.32;;;14.50;99.90;;;;;;5030027;28;20121;-88
2022/11/09 12:27:32;;;;;;;5.55;0.30;;;14.30;99.90;;;;;;5029286;28;20068;-82
2022/11/09 12:30:22;;;;;;;4.30;0.30;;;14.30;99.90;;;;;;5032206;28;20121;-82
2022/11/09 12:33:25;;;;;;;2.72;0.25;;;14.20;99.90;;;;;;5012007;28;20540;-83
2022/11/09 12:36:35;;;;;;;5.55;1.23;;;14.20;99.90;;;;;;5027151;28;20039;-81
2022/11/09 12:39:33;;;;;;;3.67;0.60;;;14.40;99.90;;;;;;5029911;28;20095;-95
2022/11/09 12:42:25;;;;;;;4.20;0.40;;;14.40;99.90;;;;;;5029037;28;20423;-81
2022/11/09 12:45:30;;;;;;;4.63;0.30;;;14.40;99.90;;;;;;5027202;28;20446;-82
2022/11/09 12:48:24;;;;;;;3.72;0.50;;;14.60;99.90;;;;;;5025499;28;20051;-86
2022/11/09 12:51:09;;;;;;;6.93;0.45;;;14.40;99.90;;;;;;5014787;28;20047;-80
2022/11/09 12:53:55;;;;;;;5.88;0.50;;;14.30;99.90;;;;;;5010436;28;20041;-80
2022/11/09 12:56:56;;;;;;;4.82;0.40;;;14.40;99.90;;;;;;5007391;28;20092;-88
2022/11/09 12:59:52;;;;;;;4.10;0.30;;;14.50;99.90;;;;;;5021557;28;20115;-86
2022/11/09 13:02:51;;;;;;;4.97;0.50;;;14.50;99.90;;;;;;5010339;28;20037;-80
2022/11/09 13:05:37;;;;;;;2.40;0.30;;;14.50;99.90;;;;;;5011348;28;20053;-88
2022/11/09 13:08:30;;;;;;;2.63;0.22;;;14.50;99.90;;;;;;5009380;28;20117;-91
2022/11/09 13:11:19;;;;;;;3.42;0.20;;;14.60;99.90;;;;;;5007150;28;20501;-90
2022/11/09 13:14:22;;;;;;;3.03;0.20;;;14.60;99.90;;;;;;5006635;28;20398;-80
2022/11/09 13:17:25;;;;;;;3.47;0.20;;;14.60;99.90;;;;;;4970537;28;20314;-90
2022/11/09 13:20:34;;;;;;;3.33;0.30;;;14.40;99.90;;;;;;4992822;28;20044;-83
2022/11/09 13:23:29;;;;;;;4.88;0.45;;;14.50;99.90;;;;;;4994361;28;20436;-96
2022/11/09 13:26:31;;;;;;;4.53;0.20;;;14.50;99.90;;;;;;5007698;28;20405;-92
2022/11/09 13:29:26;;;;;;;4.75;0.38;;;14.60;99.90;;;;;;4991734;28;20105;-83